sensor_id;sensor_type;location;lat;lon;timestamp;P1;durP1;ratioP1;P2;durP2;ratioP2
4202;SDS011;2115;51.038;7.006;2023-05-10T09:23:14;693.70;;;281.80;;
4202;SDS011;2115;51.038;7.006;2023-05-10T09:28:08;686.35;;;282.70;;
4202;SDS011;2115;51.038;7.006;2023-05-10T09:33:00;693.50;;;298.60;;
4202;SDS011;2115;51.038;7.006;2023-05-10T09:35:26;706.80;;;300.83;;
4202;SDS011;2115;51.038;7.006;2023-05-10T09:37:54;698.67;;;298.17;;
4202;SDS011;2115;51.038;7.006;2023-05-10T09:40:21;704.57;;;301.17;;
4202;SDS011;2115;51.038;7.006;2023-05-10T09:42:52;707.80;;;301.00;;
4202;SDS011;2115;51.038;7.006;2023-05-10T09:45:20;701.20;;;295.93;;
4202;SDS011;2115;51.038;7.006;2023-05-10T09:47:46;706.50;;;296.97;;
4202;SDS011;2115;51.038;7.006;2023-05-10T09:50:11;689.87;;;276.87;;
4202;SDS011;2115;51.038;7.006;2023-05-10T09:55:12;682.13;;;271.17;;
4202;SDS011;2115;51.038;7.006;2023-05-10T09:57:38;684.57;;;260.47;;
4202;SDS011;2115;51.038;7.006;2023-05-10T10:00:04;688.25;;;274.30;;
4202;SDS011;2115;51.038;7.006;2023-05-10T10:02:31;689.27;;;275.60;;
4202;SDS011;2115;51.038;7.006;2023-05-10T10:04:56;684.57;;;271.00;;
4202;SDS011;2115;51.038;7.006;2023-05-10T10:07:22;696.67;;;272.70;;
4202;SDS011;2115;51.038;7.006;2023-05-10T10:09:48;685.80;;;264.97;;
4202;SDS011;2115;51.038;7.006;2023-05-10T10:12:14;692.47;;;283.17;;
4202;SDS011;2115;51.038;7.006;2023-05-10T10:14:40;699.47;;;286.73;;
4202;SDS011;2115;51.038;7.006;2023-05-10T10:17:05;713.57;;;279.33;;
4202;SDS011;2115;51.038;7.006;2023-05-10T10:19:32;709.20;;;287.90;;
4202;SDS011;2115;51.038;7.006;2023-05-10T10:21:58;708.57;;;284.13;;
4202;SDS011;2115;51.038;7.006;2023-05-10T10:24:24;695.00;;;276.73;;
4202;SDS011;2115;51.038;7.006;2023-05-10T10:26:49;699.23;;;280.47;;
4202;SDS011;2115;51.038;7.006;2023-05-10T10:34:51;698.87;;;286.63;;
4202;SDS011;2115;51.038;7.006;2023-05-10T10:37:17;703.37;;;298.43;;
4202;SDS011;2115;51.038;7.006;2023-05-10T10:39:42;714.23;;;308.80;;
4202;SDS011;2115;51.038;7.006;2023-05-10T10:42:08;709.83;;;305.00;;
4202;SDS011;2115;51.038;7.006;2023-05-10T10:44:34;721.13;;;320.20;;
4202;SDS011;2115;51.038;7.006;2023-05-10T10:49:48;710.73;;;300.00;;
4202;SDS011;2115;51.038;7.006;2023-05-10T10:57:54;708.30;;;287.97;;
4202;SDS011;2115;51.038;7.006;2023-05-10T11:00:31;708.97;;;299.60;;
4202;SDS011;2115;51.038;7.006;2023-05-10T11:03:08;713.77;;;312.00;;
4202;SDS011;2115;51.038;7.006;2023-05-10T11:05:50;717.07;;;317.97;;
4202;SDS011;2115;51.038;7.006;2023-05-10T11:13:43;724.50;;;324.63;;
4202;SDS011;2115;51.038;7.006;2023-05-10T11:16:22;731.67;;;351.27;;
4202;SDS011;2115;51.038;7.006;2023-05-10T11:18:59;738.63;;;370.67;;
4202;SDS011;2115;51.038;7.006;2023-05-10T11:21:27;748.30;;;390.50;;
4202;SDS011;2115;51.038;7.006;2023-05-10T11:23:54;739.27;;;388.57;;
4202;SDS011;2115;51.038;7.006;2023-05-10T11:26:22;743.23;;;371.33;;
4202;SDS011;2115;51.038;7.006;2023-05-10T11:28:52;737.57;;;373.57;;
4202;SDS011;2115;51.038;7.006;2023-05-10T11:31:20;735.63;;;373.60;;
4202;SDS011;2115;51.038;7.006;2023-05-10T11:33:46;735.00;;;364.47;;
4202;SDS011;2115;51.038;7.006;2023-05-10T11:36:54;734.20;;;351.17;;
4202;SDS011;2115;51.038;7.006;2023-05-10T11:39:00;731.97;;;351.60;;
4202;SDS011;2115;51.038;7.006;2023-05-10T11:41:27;726.87;;;345.53;;
4202;SDS011;2115;51.038;7.006;2023-05-10T11:43:54;734.07;;;341.57;;
4202;SDS011;2115;51.038;7.006;2023-05-10T11:46:20;729.20;;;335.70;;
4202;SDS011;2115;51.038;7.006;2023-05-10T11:48:48;714.40;;;335.13;;
4202;SDS011;2115;51.038;7.006;2023-05-10T11:51:19;720.07;;;326.53;;
4202;SDS011;2115;51.038;7.006;2023-05-10T11:53:45;729.87;;;356.87;;
4202;SDS011;2115;51.038;7.006;2023-05-10T11:56:11;728.07;;;345.77;;
4202;SDS011;2115;51.038;7.006;2023-05-10T11:58:37;729.03;;;367.13;;
4202;SDS011;2115;51.038;7.006;2023-05-10T12:01:05;735.63;;;374.30;;
4202;SDS011;2115;51.038;7.006;2023-05-10T12:03:32;760.60;;;415.17;;
4202;SDS011;2115;51.038;7.006;2023-05-10T12:05:58;752.53;;;422.03;;
4202;SDS011;2115;51.038;7.006;2023-05-10T12:08:27;769.93;;;440.63;;
4202;SDS011;2115;51.038;7.006;2023-05-10T12:10:53;774.33;;;492.10;;
4202;SDS011;2115;51.038;7.006;2023-05-10T12:13:29;778.77;;;514.17;;
4202;SDS011;2115;51.038;7.006;2023-05-10T12:15:57;779.47;;;513.80;;
4202;SDS011;2115;51.038;7.006;2023-05-10T12:18:23;776.87;;;528.10;;
4202;SDS011;2115;51.038;7.006;2023-05-10T12:20:51;773.47;;;509.87;;
4202;SDS011;2115;51.038;7.006;2023-05-10T12:23:17;770.67;;;482.47;;
4202;SDS011;2115;51.038;7.006;2023-05-10T12:25:44;791.33;;;559.47;;
4202;SDS011;2115;51.038;7.006;2023-05-10T12:28:10;790.70;;;543.20;;
4202;SDS011;2115;51.038;7.006;2023-05-10T12:30:35;785.50;;;558.37;;
4202;SDS011;2115;51.038;7.006;2023-05-10T12:33:03;786.67;;;536.87;;
4202;SDS011;2115;51.038;7.006;2023-05-10T12:35:58;785.43;;;565.43;;
4202;SDS011;2115;51.038;7.006;2023-05-10T12:38:36;788.30;;;550.40;;
4202;SDS011;2115;51.038;7.006;2023-05-10T12:41:04;796.27;;;591.33;;
4202;SDS011;2115;51.038;7.006;2023-05-10T12:43:31;796.47;;;585.13;;
4202;SDS011;2115;51.038;7.006;2023-05-10T12:45:57;776.93;;;553.67;;
4202;SDS011;2115;51.038;7.006;2023-05-10T12:48:23;789.83;;;560.33;;
4202;SDS011;2115;51.038;7.006;2023-05-10T12:50:48;799.80;;;575.57;;
4202;SDS011;2115;51.038;7.006;2023-05-10T12:53:14;781.30;;;532.87;;
4202;SDS011;2115;51.038;7.006;2023-05-10T12:55:43;778.90;;;534.50;;
4202;SDS011;2115;51.038;7.006;2023-05-10T12:58:09;783.77;;;542.70;;
4202;SDS011;2115;51.038;7.006;2023-05-10T13:00:34;774.60;;;515.57;;
4202;SDS011;2115;51.038;7.006;2023-05-10T13:03:00;770.17;;;518.07;;
4202;SDS011;2115;51.038;7.006;2023-05-10T13:05:25;773.90;;;525.17;;
4202;SDS011;2115;51.038;7.006;2023-05-10T13:07:50;772.07;;;510.27;;
4202;SDS011;2115;51.038;7.006;2023-05-10T13:10:16;796.90;;;540.33;;
4202;SDS011;2115;51.038;7.006;2023-05-10T13:12:41;783.57;;;546.07;;
4202;SDS011;2115;51.038;7.006;2023-05-10T13:15:07;766.87;;;502.27;;
4202;SDS011;2115;51.038;7.006;2023-05-10T13:17:34;773.30;;;515.60;;
4202;SDS011;2115;51.038;7.006;2023-05-10T13:19:59;778.60;;;531.37;;
4202;SDS011;2115;51.038;7.006;2023-05-10T13:22:26;774.93;;;521.93;;
4202;SDS011;2115;51.038;7.006;2023-05-10T13:24:51;766.00;;;489.13;;
4202;SDS011;2115;51.038;7.006;2023-05-10T13:27:17;763.73;;;482.70;;
4202;SDS011;2115;51.038;7.006;2023-05-10T13:29:42;773.00;;;519.50;;
4202;SDS011;2115;51.038;7.006;2023-05-10T13:32:07;779.67;;;538.87;;
4202;SDS011;2115;51.038;7.006;2023-05-10T13:34:33;793.43;;;586.87;;
4202;SDS011;2115;51.038;7.006;2023-05-10T13:37:00;801.67;;;596.80;;
4202;SDS011;2115;51.038;7.006;2023-05-10T13:39:26;795.77;;;618.17;;
4202;SDS011;2115;51.038;7.006;2023-05-10T13:41:51;795.23;;;621.80;;
4202;SDS011;2115;51.038;7.006;2023-05-10T13:44:16;797.77;;;636.30;;
4202;SDS011;2115;51.038;7.006;2023-05-10T13:46:42;802.17;;;655.20;;
4202;SDS011;2115;51.038;7.006;2023-05-10T13:49:08;812.70;;;715.50;;
4202;SDS011;2115;51.038;7.006;2023-05-10T13:51:34;808.67;;;676.90;;
4202;SDS011;2115;51.038;7.006;2023-05-10T13:54:00;834.50;;;718.50;;
4202;SDS011;2115;51.038;7.006;2023-05-10T13:56:26;829.93;;;707.30;;
4202;SDS011;2115;51.038;7.006;2023-05-10T13:58:51;824.57;;;723.60;;
4202;SDS011;2115;51.038;7.006;2023-05-10T14:01:17;809.20;;;690.83;;
4202;SDS011;2115;51.038;7.006;2023-05-10T14:03:42;817.63;;;683.30;;
4202;SDS011;2115;51.038;7.006;2023-05-10T14:06:08;822.33;;;661.00;;
4202;SDS011;2115;51.038;7.006;2023-05-10T14:08:33;803.57;;;634.77;;
4202;SDS011;2115;51.038;7.006;2023-05-10T14:11:00;796.77;;;625.10;;
4202;SDS011;2115;51.038;7.006;2023-05-10T14:13:26;810.93;;;654.77;;
4202;SDS011;2115;51.038;7.006;2023-05-10T14:15:53;805.17;;;650.50;;
4202;SDS011;2115;51.038;7.006;2023-05-10T14:18:18;805.63;;;652.83;;
4202;SDS011;2115;51.038;7.006;2023-05-10T14:20:44;813.23;;;665.00;;
4202;SDS011;2115;51.038;7.006;2023-05-10T14:23:09;818.20;;;625.83;;
4202;SDS011;2115;51.038;7.006;2023-05-10T14:25:34;806.00;;;634.93;;
4202;SDS011;2115;51.038;7.006;2023-05-10T14:28:00;806.47;;;587.57;;
4202;SDS011;2115;51.038;7.006;2023-05-10T14:30:26;812.07;;;593.00;;
4202;SDS011;2115;51.038;7.006;2023-05-10T14:32:51;791.30;;;580.27;;
4202;SDS011;2115;51.038;7.006;2023-05-10T14:35:19;794.50;;;585.43;;
4202;SDS011;2115;51.038;7.006;2023-05-10T14:37:44;807.20;;;588.47;;
4202;SDS011;2115;51.038;7.006;2023-05-10T14:40:10;787.93;;;540.53;;
4202;SDS011;2115;51.038;7.006;2023-05-10T14:42:35;795.77;;;550.90;;
4202;SDS011;2115;51.038;7.006;2023-05-10T14:45:01;777.07;;;514.13;;
4202;SDS011;2115;51.038;7.006;2023-05-10T14:47:26;785.30;;;526.33;;
4202;SDS011;2115;51.038;7.006;2023-05-10T14:49:52;780.17;;;503.13;;
4202;SDS011;2115;51.038;7.006;2023-05-10T14:52:17;770.47;;;479.87;;
4202;SDS011;2115;51.038;7.006;2023-05-10T14:54:43;768.00;;;484.13;;
4202;SDS011;2115;51.038;7.006;2023-05-10T14:57:08;774.93;;;507.17;;
4202;SDS011;2115;51.038;7.006;2023-05-10T14:59:33;789.97;;;504.23;;
4202;SDS011;2115;51.038;7.006;2023-05-10T15:01:59;770.73;;;490.43;;
4202;SDS011;2115;51.038;7.006;2023-05-10T15:04:24;766.37;;;457.10;;
4202;SDS011;2115;51.038;7.006;2023-05-10T15:06:49;779.90;;;466.17;;
4202;SDS011;2115;51.038;7.006;2023-05-10T15:09:15;757.40;;;440.40;;
4202;SDS011;2115;51.038;7.006;2023-05-10T15:11:41;768.77;;;452.00;;
4202;SDS011;2115;51.038;7.006;2023-05-10T15:14:06;765.23;;;455.57;;
4202;SDS011;2115;51.038;7.006;2023-05-10T15:16:32;756.03;;;423.63;;
4202;SDS011;2115;51.038;7.006;2023-05-10T15:18:57;766.57;;;439.03;;
4202;SDS011;2115;51.038;7.006;2023-05-10T15:21:23;763.50;;;420.70;;
4202;SDS011;2115;51.038;7.006;2023-05-10T15:23:48;750.00;;;432.20;;
4202;SDS011;2115;51.038;7.006;2023-05-10T15:26:13;747.07;;;419.53;;
4202;SDS011;2115;51.038;7.006;2023-05-10T15:28:39;742.47;;;413.73;;
4202;SDS011;2115;51.038;7.006;2023-05-10T15:31:04;749.47;;;427.67;;
4202;SDS011;2115;51.038;7.006;2023-05-10T15:33:30;753.23;;;417.80;;
4202;SDS011;2115;51.038;7.006;2023-05-10T15:35:55;750.67;;;411.17;;
4202;SDS011;2115;51.038;7.006;2023-05-10T15:38:20;753.80;;;419.60;;
4202;SDS011;2115;51.038;7.006;2023-05-10T15:40:46;747.87;;;395.97;;
4202;SDS011;2115;51.038;7.006;2023-05-10T15:43:12;743.03;;;422.57;;
4202;SDS011;2115;51.038;7.006;2023-05-10T15:45:40;753.53;;;427.37;;
4202;SDS011;2115;51.038;7.006;2023-05-10T15:48:05;767.40;;;412.40;;
4202;SDS011;2115;51.038;7.006;2023-05-10T15:50:31;764.03;;;405.50;;
4202;SDS011;2115;51.038;7.006;2023-05-10T15:52:57;747.30;;;384.60;;
4202;SDS011;2115;51.038;7.006;2023-05-10T15:55:22;742.07;;;403.77;;
4202;SDS011;2115;51.038;7.006;2023-05-10T15:57:47;742.03;;;392.77;;
4202;SDS011;2115;51.038;7.006;2023-05-10T16:00:13;737.73;;;387.83;;
4202;SDS011;2115;51.038;7.006;2023-05-10T16:02:39;745.70;;;392.17;;
4202;SDS011;2115;51.038;7.006;2023-05-10T16:05:05;737.50;;;368.57;;
4202;SDS011;2115;51.038;7.006;2023-05-10T16:07:30;745.10;;;366.63;;
4202;SDS011;2115;51.038;7.006;2023-05-10T16:09:56;737.07;;;359.90;;
4202;SDS011;2115;51.038;7.006;2023-05-10T16:12:21;728.77;;;340.90;;
4202;SDS011;2115;51.038;7.006;2023-05-10T16:14:46;730.70;;;354.40;;
4202;SDS011;2115;51.038;7.006;2023-05-10T16:17:12;715.67;;;339.17;;
4202;SDS011;2115;51.038;7.006;2023-05-10T16:19:42;700.83;;;318.27;;
4202;SDS011;2115;51.038;7.006;2023-05-10T16:22:07;699.57;;;328.53;;
4202;SDS011;2115;51.038;7.006;2023-05-10T16:24:32;704.50;;;341.93;;
4202;SDS011;2115;51.038;7.006;2023-05-10T16:26:58;714.87;;;345.00;;
4202;SDS011;2115;51.038;7.006;2023-05-10T16:29:23;718.87;;;360.43;;
4202;SDS011;2115;51.038;7.006;2023-05-10T16:31:49;721.43;;;352.20;;
4202;SDS011;2115;51.038;7.006;2023-05-10T16:34:14;716.37;;;349.20;;
4202;SDS011;2115;51.038;7.006;2023-05-10T16:36:40;706.67;;;345.43;;
4202;SDS011;2115;51.038;7.006;2023-05-10T16:39:05;727.77;;;368.53;;
4202;SDS011;2115;51.038;7.006;2023-05-10T16:41:31;724.43;;;366.37;;
4202;SDS011;2115;51.038;7.006;2023-05-10T16:43:58;725.27;;;379.17;;
4202;SDS011;2115;51.038;7.006;2023-05-10T16:46:24;721.27;;;376.57;;
4202;SDS011;2115;51.038;7.006;2023-05-10T16:48:50;724.80;;;391.10;;
4202;SDS011;2115;51.038;7.006;2023-05-10T16:51:15;734.37;;;400.67;;
4202;SDS011;2115;51.038;7.006;2023-05-10T16:53:41;752.20;;;432.00;;
4202;SDS011;2115;51.038;7.006;2023-05-10T16:56:06;737.43;;;416.80;;
4202;SDS011;2115;51.038;7.006;2023-05-10T16:58:32;741.73;;;428.93;;
4202;SDS011;2115;51.038;7.006;2023-05-10T17:00:58;748.63;;;433.93;;
4202;SDS011;2115;51.038;7.006;2023-05-10T17:03:24;742.10;;;436.50;;
4202;SDS011;2115;51.038;7.006;2023-05-10T17:05:49;760.93;;;443.57;;
4202;SDS011;2115;51.038;7.006;2023-05-10T17:08:14;747.60;;;441.10;;
4202;SDS011;2115;51.038;7.006;2023-05-10T17:10:40;756.30;;;423.73;;
4202;SDS011;2115;51.038;7.006;2023-05-10T17:13:05;765.43;;;445.20;;
4202;SDS011;2115;51.038;7.006;2023-05-10T17:15:31;752.50;;;426.90;;
4202;SDS011;2115;51.038;7.006;2023-05-10T17:17:56;737.73;;;399.50;;
4202;SDS011;2115;51.038;7.006;2023-05-10T17:20:22;742.20;;;411.23;;
4202;SDS011;2115;51.038;7.006;2023-05-10T17:22:47;735.23;;;402.87;;
4202;SDS011;2115;51.038;7.006;2023-05-10T17:25:12;747.37;;;407.20;;
4202;SDS011;2115;51.038;7.006;2023-05-10T17:27:38;741.20;;;407.13;;
4202;SDS011;2115;51.038;7.006;2023-05-10T17:30:03;746.80;;;396.63;;
4202;SDS011;2115;51.038;7.006;2023-05-10T17:32:29;729.07;;;378.70;;
4202;SDS011;2115;51.038;7.006;2023-05-10T17:34:55;731.63;;;390.20;;
4202;SDS011;2115;51.038;7.006;2023-05-10T17:37:20;741.67;;;393.13;;
4202;SDS011;2115;51.038;7.006;2023-05-10T17:39:45;727.97;;;377.53;;
4202;SDS011;2115;51.038;7.006;2023-05-10T17:42:11;730.53;;;356.33;;
4202;SDS011;2115;51.038;7.006;2023-05-10T17:44:36;716.17;;;357.87;;
4202;SDS011;2115;51.038;7.006;2023-05-10T17:47:02;727.57;;;354.13;;
4202;SDS011;2115;51.038;7.006;2023-05-10T17:49:27;738.57;;;357.83;;
4202;SDS011;2115;51.038;7.006;2023-05-10T17:51:52;738.83;;;355.23;;
4202;SDS011;2115;51.038;7.006;2023-05-10T17:54:18;717.87;;;348.73;;
4202;SDS011;2115;51.038;7.006;2023-05-10T17:56:43;720.57;;;345.07;;
4202;SDS011;2115;51.038;7.006;2023-05-10T17:59:09;711.10;;;323.37;;
4202;SDS011;2115;51.038;7.006;2023-05-10T18:01:34;716.23;;;325.73;;
4202;SDS011;2115;51.038;7.006;2023-05-10T18:03:59;712.50;;;328.27;;
4202;SDS011;2115;51.038;7.006;2023-05-10T18:06:25;715.37;;;324.93;;
4202;SDS011;2115;51.038;7.006;2023-05-10T18:08:50;724.30;;;335.70;;
4202;SDS011;2115;51.038;7.006;2023-05-10T18:11:16;701.07;;;299.47;;
4202;SDS011;2115;51.038;7.006;2023-05-10T18:13:41;707.00;;;321.53;;
4202;SDS011;2115;51.038;7.006;2023-05-10T18:16:06;722.00;;;323.17;;
4202;SDS011;2115;51.038;7.006;2023-05-10T18:18:37;698.77;;;318.27;;
4202;SDS011;2115;51.038;7.006;2023-05-10T18:21:03;695.87;;;311.13;;
4202;SDS011;2115;51.038;7.006;2023-05-10T18:23:28;706.50;;;329.93;;
4202;SDS011;2115;51.038;7.006;2023-05-10T18:25:54;703.60;;;315.87;;
4202;SDS011;2115;51.038;7.006;2023-05-10T18:28:19;697.13;;;316.20;;
4202;SDS011;2115;51.038;7.006;2023-05-10T18:30:45;710.70;;;313.37;;
4202;SDS011;2115;51.038;7.006;2023-05-10T18:33:10;694.47;;;307.20;;
4202;SDS011;2115;51.038;7.006;2023-05-10T18:35:38;698.23;;;315.70;;
4202;SDS011;2115;51.038;7.006;2023-05-10T18:38:04;699.37;;;318.27;;
4202;SDS011;2115;51.038;7.006;2023-05-10T18:40:30;688.77;;;301.07;;
4202;SDS011;2115;51.038;7.006;2023-05-10T18:42:55;688.77;;;298.70;;
4202;SDS011;2115;51.038;7.006;2023-05-10T18:45:21;688.30;;;305.93;;
4202;SDS011;2115;51.038;7.006;2023-05-10T18:47:48;683.23;;;297.20;;
4202;SDS011;2115;51.038;7.006;2023-05-10T18:50:13;697.53;;;297.20;;
4202;SDS011;2115;51.038;7.006;2023-05-10T18:52:40;683.00;;;281.23;;
4202;SDS011;2115;51.038;7.006;2023-05-10T18:55:07;696.00;;;299.03;;
4202;SDS011;2115;51.038;7.006;2023-05-10T18:57:32;685.40;;;291.50;;
4202;SDS011;2115;51.038;7.006;2023-05-10T19:00:05;675.00;;;277.80;;
4202;SDS011;2115;51.038;7.006;2023-05-10T19:02:34;680.87;;;277.27;;
4202;SDS011;2115;51.038;7.006;2023-05-10T19:05:00;692.67;;;295.43;;
4202;SDS011;2115;51.038;7.006;2023-05-10T19:07:26;683.40;;;274.80;;
4202;SDS011;2115;51.038;7.006;2023-05-10T19:09:51;680.00;;;278.43;;
4202;SDS011;2115;51.038;7.006;2023-05-10T19:12:16;694.50;;;330.83;;
4202;SDS011;2115;51.038;7.006;2023-05-10T19:14:42;683.43;;;287.83;;
4202;SDS011;2115;51.038;7.006;2023-05-10T19:17:07;674.75;;;275.25;;
4202;SDS011;2115;51.038;7.006;2023-05-10T19:19:33;696.93;;;294.17;;
4202;SDS011;2115;51.038;7.006;2023-05-10T19:21:58;681.10;;;282.63;;
4202;SDS011;2115;51.038;7.006;2023-05-10T19:24:23;668.47;;;266.07;;
4202;SDS011;2115;51.038;7.006;2023-05-10T19:26:49;672.17;;;271.17;;
4202;SDS011;2115;51.038;7.006;2023-05-10T19:29:15;668.63;;;278.27;;
4202;SDS011;2115;51.038;7.006;2023-05-10T19:31:41;663.10;;;269.77;;
4202;SDS011;2115;51.038;7.006;2023-05-10T19:34:06;662.50;;;267.63;;
4202;SDS011;2115;51.038;7.006;2023-05-10T19:36:31;662.93;;;261.57;;
4202;SDS011;2115;51.038;7.006;2023-05-10T19:38:57;662.93;;;268.37;;
4202;SDS011;2115;51.038;7.006;2023-05-10T19:41:22;660.60;;;264.30;;
4202;SDS011;2115;51.038;7.006;2023-05-10T19:43:48;652.60;;;255.63;;
4202;SDS011;2115;51.038;7.006;2023-05-10T19:46:13;657.10;;;258.60;;
4202;SDS011;2115;51.038;7.006;2023-05-10T19:48:38;661.03;;;262.60;;
4202;SDS011;2115;51.038;7.006;2023-05-10T19:51:04;653.67;;;252.60;;
4202;SDS011;2115;51.038;7.006;2023-05-10T19:53:30;670.75;;;266.15;;
4202;SDS011;2115;51.038;7.006;2023-05-10T19:56:03;662.53;;;270.97;;
4202;SDS011;2115;51.038;7.006;2023-05-10T19:58:30;664.20;;;267.37;;
4202;SDS011;2115;51.038;7.006;2023-05-10T20:00:57;657.57;;;258.53;;
4202;SDS011;2115;51.038;7.006;2023-05-10T20:03:22;658.23;;;263.00;;
4202;SDS011;2115;51.038;7.006;2023-05-10T20:05:48;652.93;;;254.70;;
4202;SDS011;2115;51.038;7.006;2023-05-10T20:08:13;663.80;;;275.10;;
4202;SDS011;2115;51.038;7.006;2023-05-10T20:10:39;655.13;;;263.90;;
4202;SDS011;2115;51.038;7.006;2023-05-10T20:13:05;656.80;;;265.23;;
4202;SDS011;2115;51.038;7.006;2023-05-10T20:15:30;659.23;;;260.50;;
4202;SDS011;2115;51.038;7.006;2023-05-10T20:17:56;667.23;;;260.57;;
4202;SDS011;2115;51.038;7.006;2023-05-10T20:20:21;657.20;;;255.43;;
4202;SDS011;2115;51.038;7.006;2023-05-10T20:22:48;652.23;;;252.50;;
4202;SDS011;2115;51.038;7.006;2023-05-10T20:25:14;659.90;;;262.40;;
4202;SDS011;2115;51.038;7.006;2023-05-10T20:27:40;652.47;;;252.87;;
4202;SDS011;2115;51.038;7.006;2023-05-10T20:30:05;661.43;;;269.50;;
4202;SDS011;2115;51.038;7.006;2023-05-10T20:32:31;661.50;;;269.20;;
4202;SDS011;2115;51.038;7.006;2023-05-10T20:34:58;651.17;;;247.40;;
4202;SDS011;2115;51.038;7.006;2023-05-10T20:37:23;654.77;;;260.17;;
4202;SDS011;2115;51.038;7.006;2023-05-10T20:39:48;660.07;;;254.60;;
4202;SDS011;2115;51.038;7.006;2023-05-10T20:42:14;651.07;;;243.67;;
4202;SDS011;2115;51.038;7.006;2023-05-10T20:44:39;663.30;;;253.37;;
4202;SDS011;2115;51.038;7.006;2023-05-10T20:47:04;654.33;;;244.53;;
4202;SDS011;2115;51.038;7.006;2023-05-10T20:49:30;656.90;;;251.50;;
4202;SDS011;2115;51.038;7.006;2023-05-10T20:51:56;652.43;;;254.07;;
4202;SDS011;2115;51.038;7.006;2023-05-10T20:54:23;655.60;;;258.17;;
4202;SDS011;2115;51.038;7.006;2023-05-10T20:56:49;659.40;;;252.80;;
4202;SDS011;2115;51.038;7.006;2023-05-10T20:59:15;655.00;;;243.27;;
4202;SDS011;2115;51.038;7.006;2023-05-10T21:01:41;658.57;;;251.30;;
4202;SDS011;2115;51.038;7.006;2023-05-10T21:04:07;672.53;;;250.93;;
4202;SDS011;2115;51.038;7.006;2023-05-10T21:06:32;660.23;;;248.13;;
4202;SDS011;2115;51.038;7.006;2023-05-10T21:08:57;661.03;;;249.07;;
4202;SDS011;2115;51.038;7.006;2023-05-10T21:11:23;651.30;;;239.27;;
4202;SDS011;2115;51.038;7.006;2023-05-10T21:13:48;650.07;;;245.60;;
4202;SDS011;2115;51.038;7.006;2023-05-10T21:16:15;645.67;;;247.30;;
4202;SDS011;2115;51.038;7.006;2023-05-10T21:18:40;652.43;;;246.00;;
4202;SDS011;2115;51.038;7.006;2023-05-10T21:21:05;642.03;;;248.33;;
4202;SDS011;2115;51.038;7.006;2023-05-10T21:23:31;654.77;;;259.07;;
4202;SDS011;2115;51.038;7.006;2023-05-10T21:25:56;654.93;;;245.47;;
4202;SDS011;2115;51.038;7.006;2023-05-10T21:28:21;646.27;;;235.67;;
4202;SDS011;2115;51.038;7.006;2023-05-10T21:30:47;648.80;;;247.70;;
4202;SDS011;2115;51.038;7.006;2023-05-10T21:33:12;650.40;;;249.47;;
4202;SDS011;2115;51.038;7.006;2023-05-10T21:35:38;636.57;;;228.17;;
4202;SDS011;2115;51.038;7.006;2023-05-10T21:38:06;648.47;;;246.83;;
4202;SDS011;2115;51.038;7.006;2023-05-10T21:40:36;650.10;;;236.23;;
4202;SDS011;2115;51.038;7.006;2023-05-10T21:43:02;643.67;;;235.60;;
4202;SDS011;2115;51.038;7.006;2023-05-10T21:45:28;645.70;;;234.40;;
4202;SDS011;2115;51.038;7.006;2023-05-10T21:47:56;646.30;;;237.47;;
4202;SDS011;2115;51.038;7.006;2023-05-10T21:50:22;639.43;;;236.30;;
4202;SDS011;2115;51.038;7.006;2023-05-10T21:52:48;650.33;;;232.97;;
4202;SDS011;2115;51.038;7.006;2023-05-10T21:55:13;642.73;;;239.43;;
4202;SDS011;2115;51.038;7.006;2023-05-10T21:57:39;661.23;;;234.93;;
4202;SDS011;2115;51.038;7.006;2023-05-10T22:00:05;646.23;;;237.50;;
4202;SDS011;2115;51.038;7.006;2023-05-10T22:02:31;641.67;;;235.87;;
4202;SDS011;2115;51.038;7.006;2023-05-10T22:04:56;650.10;;;242.90;;
4202;SDS011;2115;51.038;7.006;2023-05-10T22:07:22;640.90;;;229.83;;
4202;SDS011;2115;51.038;7.006;2023-05-10T22:09:47;642.37;;;236.97;;
4202;SDS011;2115;51.038;7.006;2023-05-10T22:12:12;642.70;;;237.77;;
4202;SDS011;2115;51.038;7.006;2023-05-10T22:14:38;642.93;;;242.77;;
4202;SDS011;2115;51.038;7.006;2023-05-10T22:17:03;652.63;;;254.10;;
4202;SDS011;2115;51.038;7.006;2023-05-10T22:19:28;648.90;;;244.10;;
4202;SDS011;2115;51.038;7.006;2023-05-10T22:21:54;656.97;;;251.37;;
4202;SDS011;2115;51.038;7.006;2023-05-10T22:24:20;657.43;;;262.10;;
4202;SDS011;2115;51.038;7.006;2023-05-10T22:26:45;661.30;;;274.03;;
4202;SDS011;2115;51.038;7.006;2023-05-10T22:29:10;652.90;;;252.83;;
4202;SDS011;2115;51.038;7.006;2023-05-10T22:31:36;645.43;;;240.10;;
4202;SDS011;2115;51.038;7.006;2023-05-10T22:34:02;654.47;;;257.23;;
4202;SDS011;2115;51.038;7.006;2023-05-10T22:36:28;657.00;;;249.70;;
4202;SDS011;2115;51.038;7.006;2023-05-10T22:38:53;653.90;;;248.63;;
4202;SDS011;2115;51.038;7.006;2023-05-10T22:41:20;644.47;;;243.00;;
4202;SDS011;2115;51.038;7.006;2023-05-10T22:43:46;639.67;;;232.97;;
4202;SDS011;2115;51.038;7.006;2023-05-10T22:46:12;651.23;;;244.80;;
4202;SDS011;2115;51.038;7.006;2023-05-10T22:48:37;646.20;;;242.73;;
4202;SDS011;2115;51.038;7.006;2023-05-10T22:51:03;638.43;;;237.40;;
4202;SDS011;2115;51.038;7.006;2023-05-10T22:53:29;649.53;;;227.47;;
4202;SDS011;2115;51.038;7.006;2023-05-10T22:55:55;646.30;;;237.20;;
4202;SDS011;2115;51.038;7.006;2023-05-10T22:58:21;643.03;;;234.17;;
4202;SDS011;2115;51.038;7.006;2023-05-10T23:00:46;633.37;;;227.10;;
4202;SDS011;2115;51.038;7.006;2023-05-10T23:03:11;645.50;;;245.00;;
4202;SDS011;2115;51.038;7.006;2023-05-10T23:05:37;634.67;;;225.77;;
4202;SDS011;2115;51.038;7.006;2023-05-10T23:08:02;640.20;;;229.97;;
4202;SDS011;2115;51.038;7.006;2023-05-10T23:10:28;641.90;;;238.33;;
4202;SDS011;2115;51.038;7.006;2023-05-10T23:12:53;638.57;;;228.23;;
4202;SDS011;2115;51.038;7.006;2023-05-10T23:15:19;650.30;;;249.20;;
4202;SDS011;2115;51.038;7.006;2023-05-10T23:17:45;642.67;;;241.10;;
4202;SDS011;2115;51.038;7.006;2023-05-10T23:20:11;647.93;;;243.50;;
4202;SDS011;2115;51.038;7.006;2023-05-10T23:22:37;657.10;;;252.43;;
4202;SDS011;2115;51.038;7.006;2023-05-10T23:25:02;650.65;;;243.55;;
4202;SDS011;2115;51.038;7.006;2023-05-10T23:27:28;646.10;;;241.55;;
4202;SDS011;2115;51.038;7.006;2023-05-10T23:29:54;646.90;;;236.40;;
4202;SDS011;2115;51.038;7.006;2023-05-10T23:32:20;643.70;;;231.50;;
4202;SDS011;2115;51.038;7.006;2023-05-10T23:34:45;641.03;;;229.07;;
4202;SDS011;2115;51.038;7.006;2023-05-10T23:37:11;656.60;;;240.80;;
4202;SDS011;2115;51.038;7.006;2023-05-10T23:39:36;652.20;;;247.90;;
4202;SDS011;2115;51.038;7.006;2023-05-10T23:42:02;641.40;;;240.85;;
4202;SDS011;2115;51.038;7.006;2023-05-10T23:44:28;640.40;;;227.43;;
4202;SDS011;2115;51.038;7.006;2023-05-10T23:46:53;645.70;;;235.00;;
4202;SDS011;2115;51.038;7.006;2023-05-10T23:54:09;630.10;;;224.80;;
4202;SDS011;2115;51.038;7.006;2023-05-10T23:56:34;639.60;;;232.10;;
4202;SDS011;2115;51.038;7.006;2023-05-10T23:59:00;642.10;;;235.00;;
